sensor_id;sensor_type;location;lat;lon;timestamp;temperature;humidity
21214;DHT22;10764;50.850;2.904;2024-03-06T00:00:12;19.50;62.40
21214;DHT22;10764;50.850;2.904;2024-03-06T00:02:40;19.40;61.70
21214;DHT22;10764;50.850;2.904;2024-03-06T00:05:07;19.30;61.50
21214;DHT22;10764;50.850;2.904;2024-03-06T00:07:35;19.40;61.60
21214;DHT22;10764;50.850;2.904;2024-03-06T00:12:31;19.60;61.60
21214;DHT22;10764;50.850;2.904;2024-03-06T00:14:58;19.30;61.50
21214;DHT22;10764;50.850;2.904;2024-03-06T00:17:25;19.50;61.50
21214;DHT22;10764;50.850;2.904;2024-03-06T00:19:52;19.30;61.40
21214;DHT22;10764;50.850;2.904;2024-03-06T00:22:19;19.40;61.60
21214;DHT22;10764;50.850;2.904;2024-03-06T00:27:17;19.30;61.50
21214;DHT22;10764;50.850;2.904;2024-03-06T00:29:44;19.20;61.50
21214;DHT22;10764;50.850;2.904;2024-03-06T00:32:11;19.70;61.60
21214;DHT22;10764;50.850;2.904;2024-03-06T00:34:39;19.20;59.70
21214;DHT22;10764;50.850;2.904;2024-03-06T00:37:06;19.50;61.90
21214;DHT22;10764;50.850;2.904;2024-03-06T00:39:33;19.40;61.50
21214;DHT22;10764;50.850;2.904;2024-03-06T00:42:00;19.60;61.70
21214;DHT22;10764;50.850;2.904;2024-03-06T00:44:27;19.10;61.30
21214;DHT22;10764;50.850;2.904;2024-03-06T00:46:54;19.20;61.50
21214;DHT22;10764;50.850;2.904;2024-03-06T00:49:21;19.20;61.50
21214;DHT22;10764;50.850;2.904;2024-03-06T00:51:47;19.70;62.50
21214;DHT22;10764;50.850;2.904;2024-03-06T00:54:15;19.50;62.40
21214;DHT22;10764;50.850;2.904;2024-03-06T00:56:43;21.00;64.30
21214;DHT22;10764;50.850;2.904;2024-03-06T00:59:10;19.10;61.20
21214;DHT22;10764;50.850;2.904;2024-03-06T01:01:37;19.20;61.50
21214;DHT22;10764;50.850;2.904;2024-03-06T01:04:04;19.10;61.40
21214;DHT22;10764;50.850;2.904;2024-03-06T01:06:31;21.50;63.60
21214;DHT22;10764;50.850;2.904;2024-03-06T01:08:58;19.00;61.40
21214;DHT22;10764;50.850;2.904;2024-03-06T01:11:26;19.20;61.30
21214;DHT22;10764;50.850;2.904;2024-03-06T01:13:55;19.40;61.40
21214;DHT22;10764;50.850;2.904;2024-03-06T01:16:22;19.20;61.40
21214;DHT22;10764;50.850;2.904;2024-03-06T01:18:49;19.40;61.30
21214;DHT22;10764;50.850;2.904;2024-03-06T01:21:16;19.40;61.50
21214;DHT22;10764;50.850;2.904;2024-03-06T01:23:43;19.70;61.80
21214;DHT22;10764;50.850;2.904;2024-03-06T01:26:10;19.50;61.60
21214;DHT22;10764;50.850;2.904;2024-03-06T01:28:38;19.50;61.60
21214;DHT22;10764;50.850;2.904;2024-03-06T01:31:05;20.20;63.10
21214;DHT22;10764;50.850;2.904;2024-03-06T01:33:33;19.20;62.20
21214;DHT22;10764;50.850;2.904;2024-03-06T01:36:00;19.50;61.20
21214;DHT22;10764;50.850;2.904;2024-03-06T01:38:27;19.40;61.50
21214;DHT22;10764;50.850;2.904;2024-03-06T01:40:53;19.40;61.30
21214;DHT22;10764;50.850;2.904;2024-03-06T01:43:22;19.60;62.20
21214;DHT22;10764;50.850;2.904;2024-03-06T01:45:49;20.30;62.70
21214;DHT22;10764;50.850;2.904;2024-03-06T01:48:17;19.20;61.20
21214;DHT22;10764;50.850;2.904;2024-03-06T01:50:47;19.20;61.30
21214;DHT22;10764;50.850;2.904;2024-03-06T01:53:16;19.40;61.30
21214;DHT22;10764;50.850;2.904;2024-03-06T01:55:44;19.40;61.50
21214;DHT22;10764;50.850;2.904;2024-03-06T01:58:11;19.30;61.40
21214;DHT22;10764;50.850;2.904;2024-03-06T02:00:38;19.30;61.20
21214;DHT22;10764;50.850;2.904;2024-03-06T02:03:06;19.40;61.40
21214;DHT22;10764;50.850;2.904;2024-03-06T02:05:34;19.50;61.10
21214;DHT22;10764;50.850;2.904;2024-03-06T02:08:02;19.50;61.40
21214;DHT22;10764;50.850;2.904;2024-03-06T02:10:30;19.30;61.20
21214;DHT22;10764;50.850;2.904;2024-03-06T02:12:57;18.90;60.80
21214;DHT22;10764;50.850;2.904;2024-03-06T02:15:24;19.60;61.60
21214;DHT22;10764;50.850;2.904;2024-03-06T02:20:24;19.30;61.10
21214;DHT22;10764;50.850;2.904;2024-03-06T02:22:51;19.30;61.20
21214;DHT22;10764;50.850;2.904;2024-03-06T02:25:19;18.90;60.70
21214;DHT22;10764;50.850;2.904;2024-03-06T02:27:46;19.40;61.90
21214;DHT22;10764;50.850;2.904;2024-03-06T02:30:18;19.00;61.70
21214;DHT22;10764;50.850;2.904;2024-03-06T02:32:45;19.40;61.00
21214;DHT22;10764;50.850;2.904;2024-03-06T02:35:12;19.00;60.70
21214;DHT22;10764;50.850;2.904;2024-03-06T02:37:43;19.10;60.70
21214;DHT22;10764;50.850;2.904;2024-03-06T02:40:11;19.20;60.90
21214;DHT22;10764;50.850;2.904;2024-03-06T02:42:38;19.30;60.70
21214;DHT22;10764;50.850;2.904;2024-03-06T02:45:06;19.00;60.80
21214;DHT22;10764;50.850;2.904;2024-03-06T02:47:34;19.40;61.00
21214;DHT22;10764;50.850;2.904;2024-03-06T02:50:01;19.10;61.40
21214;DHT22;10764;50.850;2.904;2024-03-06T02:52:29;19.70;61.50
21214;DHT22;10764;50.850;2.904;2024-03-06T02:57:27;19.30;60.80
21214;DHT22;10764;50.850;2.904;2024-03-06T02:59:58;19.30;60.70
21214;DHT22;10764;50.850;2.904;2024-03-06T03:02:25;19.30;60.50
21214;DHT22;10764;50.850;2.904;2024-03-06T03:04:52;19.10;60.60
21214;DHT22;10764;50.850;2.904;2024-03-06T03:07:20;19.00;60.30
21214;DHT22;10764;50.850;2.904;2024-03-06T03:09:47;19.20;60.40
21214;DHT22;10764;50.850;2.904;2024-03-06T03:12:14;19.20;60.40
21214;DHT22;10764;50.850;2.904;2024-03-06T03:14:41;19.20;60.40
21214;DHT22;10764;50.850;2.904;2024-03-06T03:17:08;19.20;60.30
21214;DHT22;10764;50.850;2.904;2024-03-06T03:19:35;18.20;59.80
21214;DHT22;10764;50.850;2.904;2024-03-06T03:22:03;19.00;61.40
21214;DHT22;10764;50.850;2.904;2024-03-06T03:24:31;19.00;60.10
21214;DHT22;10764;50.850;2.904;2024-03-06T03:29:25;19.30;57.80
21214;DHT22;10764;50.850;2.904;2024-03-06T03:31:52;19.30;60.30
21214;DHT22;10764;50.850;2.904;2024-03-06T03:34:19;19.10;60.20
21214;DHT22;10764;50.850;2.904;2024-03-06T03:39:15;19.80;60.60
21214;DHT22;10764;50.850;2.904;2024-03-06T03:41:48;19.40;58.80
21214;DHT22;10764;50.850;2.904;2024-03-06T03:44:17;19.80;61.20
21214;DHT22;10764;50.850;2.904;2024-03-06T03:46:44;19.40;59.90
21214;DHT22;10764;50.850;2.904;2024-03-06T03:51:39;19.10;57.50
21214;DHT22;10764;50.850;2.904;2024-03-06T03:54:06;19.80;61.00
21214;DHT22;10764;50.850;2.904;2024-03-06T03:56:35;19.40;61.00
21214;DHT22;10764;50.850;2.904;2024-03-06T03:59:02;19.60;60.00
21214;DHT22;10764;50.850;2.904;2024-03-06T04:01:29;19.20;59.60
21214;DHT22;10764;50.850;2.904;2024-03-06T04:03:56;19.60;59.80
21214;DHT22;10764;50.850;2.904;2024-03-06T04:11:18;19.20;59.50
21214;DHT22;10764;50.850;2.904;2024-03-06T04:13:45;19.20;59.40
21214;DHT22;10764;50.850;2.904;2024-03-06T04:16:16;19.00;59.40
21214;DHT22;10764;50.850;2.904;2024-03-06T04:18:45;19.00;59.30
21214;DHT22;10764;50.850;2.904;2024-03-06T04:21:12;19.30;60.00
21214;DHT22;10764;50.850;2.904;2024-03-06T04:23:41;20.50;60.80
21214;DHT22;10764;50.850;2.904;2024-03-06T04:26:08;19.30;59.20
21214;DHT22;10764;50.850;2.904;2024-03-06T04:31:03;19.60;59.40
21214;DHT22;10764;50.850;2.904;2024-03-06T04:33:29;19.50;59.30
21214;DHT22;10764;50.850;2.904;2024-03-06T04:35:56;18.90;58.90
21214;DHT22;10764;50.850;2.904;2024-03-06T04:38:23;19.10;59.00
21214;DHT22;10764;50.850;2.904;2024-03-06T04:43:18;19.70;56.50
21214;DHT22;10764;50.850;2.904;2024-03-06T04:45:45;19.30;58.80
21214;DHT22;10764;50.850;2.904;2024-03-06T04:55:35;19.50;58.70
21214;DHT22;10764;50.850;2.904;2024-03-06T05:00:31;19.50;58.70
21214;DHT22;10764;50.850;2.904;2024-03-06T05:02:58;19.50;58.80
21214;DHT22;10764;50.850;2.904;2024-03-06T05:05:42;19.10;55.90
21214;DHT22;10764;50.850;2.904;2024-03-06T05:08:27;19.40;58.70
21214;DHT22;10764;50.850;2.904;2024-03-06T05:11:13;19.70;58.70
21214;DHT22;10764;50.850;2.904;2024-03-06T05:14:00;20.70;58.30
21214;DHT22;10764;50.850;2.904;2024-03-06T05:16:44;19.20;55.80
21214;DHT22;10764;50.850;2.904;2024-03-06T05:19:29;19.70;57.20
21214;DHT22;10764;50.850;2.904;2024-03-06T05:25:02;19.50;55.80
21214;DHT22;10764;50.850;2.904;2024-03-06T05:27:46;19.70;58.20
21214;DHT22;10764;50.850;2.904;2024-03-06T05:30:31;19.70;57.70
21214;DHT22;10764;50.850;2.904;2024-03-06T05:33:15;19.50;55.50
21214;DHT22;10764;50.850;2.904;2024-03-06T05:35:59;19.70;58.20
21214;DHT22;10764;50.850;2.904;2024-03-06T05:38:45;19.30;56.70
21214;DHT22;10764;50.850;2.904;2024-03-06T05:41:30;20.00;58.40
21214;DHT22;10764;50.850;2.904;2024-03-06T05:44:14;19.30;58.60
21214;DHT22;10764;50.850;2.904;2024-03-06T05:47:00;19.10;57.80
21214;DHT22;10764;50.850;2.904;2024-03-06T05:49:45;19.50;58.60
21214;DHT22;10764;50.850;2.904;2024-03-06T05:52:29;19.90;58.60
21214;DHT22;10764;50.850;2.904;2024-03-06T05:55:13;20.00;58.10
21214;DHT22;10764;50.850;2.904;2024-03-06T05:57:58;19.60;56.70
21214;DHT22;10764;50.850;2.904;2024-03-06T06:00:39;19.50;58.20
21214;DHT22;10764;50.850;2.904;2024-03-06T06:03:07;20.00;58.50
21214;DHT22;10764;50.850;2.904;2024-03-06T06:05:34;20.50;58.60
21214;DHT22;10764;50.850;2.904;2024-03-06T06:08:03;19.70;58.30
21214;DHT22;10764;50.850;2.904;2024-03-06T06:10:30;19.30;57.40
21214;DHT22;10764;50.850;2.904;2024-03-06T06:12:57;19.30;57.40
21214;DHT22;10764;50.850;2.904;2024-03-06T06:15:24;19.40;58.30
21214;DHT22;10764;50.850;2.904;2024-03-06T06:17:51;19.40;57.50
21214;DHT22;10764;50.850;2.904;2024-03-06T06:20:20;18.90;57.80
21214;DHT22;10764;50.850;2.904;2024-03-06T06:22:47;19.50;57.70
21214;DHT22;10764;50.850;2.904;2024-03-06T06:25:15;19.30;57.60
21214;DHT22;10764;50.850;2.904;2024-03-06T06:27:42;20.00;58.60
21214;DHT22;10764;50.850;2.904;2024-03-06T06:30:10;19.30;57.70
21214;DHT22;10764;50.850;2.904;2024-03-06T06:32:42;18.90;57.30
21214;DHT22;10764;50.850;2.904;2024-03-06T06:35:10;19.00;57.40
21214;DHT22;10764;50.850;2.904;2024-03-06T06:37:39;19.50;57.70
21214;DHT22;10764;50.850;2.904;2024-03-06T06:40:07;19.00;58.10
21214;DHT22;10764;50.850;2.904;2024-03-06T06:42:34;19.20;57.50
21214;DHT22;10764;50.850;2.904;2024-03-06T06:47:30;19.40;56.50
21214;DHT22;10764;50.850;2.904;2024-03-06T06:59:51;19.00;57.30
21214;DHT22;10764;50.850;2.904;2024-03-06T07:02:18;19.20;57.40
21214;DHT22;10764;50.850;2.904;2024-03-06T07:04:45;19.60;57.40
21214;DHT22;10764;50.850;2.904;2024-03-06T07:07:12;19.10;57.20
21214;DHT22;10764;50.850;2.904;2024-03-06T07:09:40;19.30;57.40
21214;DHT22;10764;50.850;2.904;2024-03-06T07:14:36;19.00;57.50
21214;DHT22;10764;50.850;2.904;2024-03-06T07:17:03;19.40;57.60
21214;DHT22;10764;50.850;2.904;2024-03-06T07:29:19;19.60;57.60
21214;DHT22;10764;50.850;2.904;2024-03-06T07:31:46;19.30;57.50
21214;DHT22;10764;50.850;2.904;2024-03-06T07:34:14;19.30;57.40
21214;DHT22;10764;50.850;2.904;2024-03-06T07:36:41;19.10;57.30
21214;DHT22;10764;50.850;2.904;2024-03-06T07:39:08;19.60;57.60
21214;DHT22;10764;50.850;2.904;2024-03-06T07:51:24;19.30;58.10
21214;DHT22;10764;50.850;2.904;2024-03-06T07:53:51;19.10;58.00
21214;DHT22;10764;50.850;2.904;2024-03-06T07:56:19;19.00;58.00
21214;DHT22;10764;50.850;2.904;2024-03-06T07:58:46;19.40;58.20
21214;DHT22;10764;50.850;2.904;2024-03-06T08:03:40;19.30;58.10
21214;DHT22;10764;50.850;2.904;2024-03-06T08:08:40;18.90;58.00
21214;DHT22;10764;50.850;2.904;2024-03-06T08:11:07;19.50;58.00
21214;DHT22;10764;50.850;2.904;2024-03-06T08:13:37;19.80;58.20
21214;DHT22;10764;50.850;2.904;2024-03-06T08:16:05;19.60;58.10
21214;DHT22;10764;50.850;2.904;2024-03-06T08:18:33;19.50;58.00
21214;DHT22;10764;50.850;2.904;2024-03-06T08:21:02;19.50;57.90
21214;DHT22;10764;50.850;2.904;2024-03-06T08:23:30;19.10;57.70
21214;DHT22;10764;50.850;2.904;2024-03-06T08:25:57;19.50;58.00
21214;DHT22;10764;50.850;2.904;2024-03-06T08:30:52;19.20;56.90
21214;DHT22;10764;50.850;2.904;2024-03-06T08:35:48;19.30;58.00
21214;DHT22;10764;50.850;2.904;2024-03-06T08:38:15;19.50;58.00
21214;DHT22;10764;50.850;2.904;2024-03-06T08:48:10;19.50;59.00
21214;DHT22;10764;50.850;2.904;2024-03-06T08:50:38;19.60;60.00
21214;DHT22;10764;50.850;2.904;2024-03-06T08:53:05;19.70;60.50
21214;DHT22;10764;50.850;2.904;2024-03-06T08:58:00;19.50;60.50
21214;DHT22;10764;50.850;2.904;2024-03-06T09:00:28;19.20;59.30
21214;DHT22;10764;50.850;2.904;2024-03-06T09:02:55;19.60;60.50
21214;DHT22;10764;50.850;2.904;2024-03-06T09:05:22;19.70;60.50
21214;DHT22;10764;50.850;2.904;2024-03-06T09:10:17;19.60;60.60
21214;DHT22;10764;50.850;2.904;2024-03-06T09:12:45;19.40;60.40
21214;DHT22;10764;50.850;2.904;2024-03-06T09:15:14;19.80;60.70
21214;DHT22;10764;50.850;2.904;2024-03-06T09:17:41;19.80;60.60
21214;DHT22;10764;50.850;2.904;2024-03-06T09:20:09;19.70;60.40
21214;DHT22;10764;50.850;2.904;2024-03-06T09:22:39;19.70;60.60
21214;DHT22;10764;50.850;2.904;2024-03-06T09:25:06;19.80;60.40
21214;DHT22;10764;50.850;2.904;2024-03-06T09:27:34;19.80;60.50
21214;DHT22;10764;50.850;2.904;2024-03-06T09:30:02;19.70;60.60
21214;DHT22;10764;50.850;2.904;2024-03-06T09:32:33;19.20;60.00
21214;DHT22;10764;50.850;2.904;2024-03-06T09:47:21;19.60;60.30
21214;DHT22;10764;50.850;2.904;2024-03-06T09:52:24;19.80;60.40
21214;DHT22;10764;50.850;2.904;2024-03-06T09:54:57;19.40;60.20
21214;DHT22;10764;50.850;2.904;2024-03-06T09:57:25;19.80;60.30
21214;DHT22;10764;50.850;2.904;2024-03-06T09:59:51;19.70;60.30
21214;DHT22;10764;50.850;2.904;2024-03-06T10:02:38;19.70;60.30
21214;DHT22;10764;50.850;2.904;2024-03-06T10:10:01;19.80;60.30
21214;DHT22;10764;50.850;2.904;2024-03-06T10:12:28;19.70;60.30
21214;DHT22;10764;50.850;2.904;2024-03-06T10:19:55;19.60;59.90
21214;DHT22;10764;50.850;2.904;2024-03-06T10:24:55;19.70;59.90
21214;DHT22;10764;50.850;2.904;2024-03-06T10:30:06;19.60;59.90
21214;DHT22;10764;50.850;2.904;2024-03-06T10:32:38;19.90;60.00
21214;DHT22;10764;50.850;2.904;2024-03-06T10:35:05;19.50;59.80
21214;DHT22;10764;50.850;2.904;2024-03-06T10:37:33;20.00;59.80
21214;DHT22;10764;50.850;2.904;2024-03-06T10:40:02;19.90;59.70
21214;DHT22;10764;50.850;2.904;2024-03-06T10:42:33;19.50;59.50
21214;DHT22;10764;50.850;2.904;2024-03-06T10:45:01;19.70;60.60
21214;DHT22;10764;50.850;2.904;2024-03-06T10:47:30;20.20;59.90
21214;DHT22;10764;50.850;2.904;2024-03-06T10:49:59;19.60;59.80
21214;DHT22;10764;50.850;2.904;2024-03-06T10:52:27;20.00;60.00
21214;DHT22;10764;50.850;2.904;2024-03-06T10:54:55;19.80;60.80
21214;DHT22;10764;50.850;2.904;2024-03-06T10:59:54;19.70;59.60
21214;DHT22;10764;50.850;2.904;2024-03-06T11:02:23;20.00;59.80
21214;DHT22;10764;50.850;2.904;2024-03-06T11:04:51;19.80;59.60
21214;DHT22;10764;50.850;2.904;2024-03-06T11:09:47;19.80;59.40
21214;DHT22;10764;50.850;2.904;2024-03-06T11:15:18;20.00;59.60
21214;DHT22;10764;50.850;2.904;2024-03-06T11:17:47;19.60;59.20
21214;DHT22;10764;50.850;2.904;2024-03-06T11:20:17;19.90;59.30
21214;DHT22;10764;50.850;2.904;2024-03-06T11:28:28;19.60;59.10
21214;DHT22;10764;50.850;2.904;2024-03-06T11:33:42;19.60;59.50
21214;DHT22;10764;50.850;2.904;2024-03-06T11:38:55;19.70;59.00
21214;DHT22;10764;50.850;2.904;2024-03-06T11:41:24;20.30;60.30
21214;DHT22;10764;50.850;2.904;2024-03-06T11:43:53;19.50;59.50
21214;DHT22;10764;50.850;2.904;2024-03-06T11:49:15;19.70;58.80
21214;DHT22;10764;50.850;2.904;2024-03-06T11:51:44;19.60;59.40
21214;DHT22;10764;50.850;2.904;2024-03-06T11:54:13;20.00;59.50
21214;DHT22;10764;50.850;2.904;2024-03-06T11:56:41;19.50;58.80
21214;DHT22;10764;50.850;2.904;2024-03-06T11:59:08;19.90;59.30
21214;DHT22;10764;50.850;2.904;2024-03-06T12:01:37;19.50;59.00
21214;DHT22;10764;50.850;2.904;2024-03-06T12:04:04;19.90;59.50
21214;DHT22;10764;50.850;2.904;2024-03-06T12:06:33;19.80;59.90
21214;DHT22;10764;50.850;2.904;2024-03-06T12:09:00;19.80;59.30
21214;DHT22;10764;50.850;2.904;2024-03-06T12:11:27;19.60;59.70
21214;DHT22;10764;50.850;2.904;2024-03-06T12:13:56;20.00;59.40
21214;DHT22;10764;50.850;2.904;2024-03-06T12:16:23;20.00;61.00
21214;DHT22;10764;50.850;2.904;2024-03-06T12:21:34;19.80;59.70
21214;DHT22;10764;50.850;2.904;2024-03-06T12:24:10;20.10;60.50
21214;DHT22;10764;50.850;2.904;2024-03-06T12:26:37;19.60;59.40
21214;DHT22;10764;50.850;2.904;2024-03-06T12:29:05;20.10;59.80
21214;DHT22;10764;50.850;2.904;2024-03-06T12:31:34;19.70;60.40
21214;DHT22;10764;50.850;2.904;2024-03-06T12:34:02;19.70;59.60
21214;DHT22;10764;50.850;2.904;2024-03-06T12:36:31;20.20;60.50
21214;DHT22;10764;50.850;2.904;2024-03-06T12:38:59;20.10;59.60
21214;DHT22;10764;50.850;2.904;2024-03-06T12:41:27;20.20;59.50
21214;DHT22;10764;50.850;2.904;2024-03-06T12:43:55;19.90;59.30
21214;DHT22;10764;50.850;2.904;2024-03-06T12:46:25;19.70;59.10
21214;DHT22;10764;50.850;2.904;2024-03-06T12:48:53;19.80;59.00
21214;DHT22;10764;50.850;2.904;2024-03-06T12:51:20;19.80;59.30
21214;DHT22;10764;50.850;2.904;2024-03-06T12:53:47;20.00;59.00
21214;DHT22;10764;50.850;2.904;2024-03-06T12:56:15;20.10;59.10
21214;DHT22;10764;50.850;2.904;2024-03-06T12:58:42;19.90;58.90
21214;DHT22;10764;50.850;2.904;2024-03-06T13:01:09;20.20;59.00
21214;DHT22;10764;50.850;2.904;2024-03-06T13:03:37;19.60;58.70
21214;DHT22;10764;50.850;2.904;2024-03-06T13:06:05;20.00;58.90
21214;DHT22;10764;50.850;2.904;2024-03-06T13:08:32;20.10;59.00
21214;DHT22;10764;50.850;2.904;2024-03-06T13:13:26;20.10;58.70
21214;DHT22;10764;50.850;2.904;2024-03-06T13:15:56;19.90;59.00
21214;DHT22;10764;50.850;2.904;2024-03-06T13:18:23;19.70;58.30
21214;DHT22;10764;50.850;2.904;2024-03-06T13:20:50;19.80;58.60
21214;DHT22;10764;50.850;2.904;2024-03-06T13:23:17;20.30;58.80
21214;DHT22;10764;50.850;2.904;2024-03-06T13:25:44;20.10;58.70
21214;DHT22;10764;50.850;2.904;2024-03-06T13:28:12;20.20;58.30
21214;DHT22;10764;50.850;2.904;2024-03-06T13:33:06;19.80;57.90
21214;DHT22;10764;50.850;2.904;2024-03-06T13:40:30;19.90;58.00
21214;DHT22;10764;50.850;2.904;2024-03-06T13:42:57;20.10;58.20
21214;DHT22;10764;50.850;2.904;2024-03-06T13:45:24;20.30;59.10
21214;DHT22;10764;50.850;2.904;2024-03-06T13:47:51;19.90;58.20
21214;DHT22;10764;50.850;2.904;2024-03-06T13:50:18;20.40;58.30
21214;DHT22;10764;50.850;2.904;2024-03-06T14:00:10;19.70;57.80
21214;DHT22;10764;50.850;2.904;2024-03-06T14:02:45;20.30;57.90
21214;DHT22;10764;50.850;2.904;2024-03-06T14:05:13;20.10;57.70
21214;DHT22;10764;50.850;2.904;2024-03-06T14:10:09;20.00;57.60
21214;DHT22;10764;50.850;2.904;2024-03-06T14:15:08;19.70;57.20
21214;DHT22;10764;50.850;2.904;2024-03-06T14:17:40;20.20;56.40
21214;DHT22;10764;50.850;2.904;2024-03-06T14:20:08;20.10;57.40
21214;DHT22;10764;50.850;2.904;2024-03-06T14:22:35;20.00;57.10
21214;DHT22;10764;50.850;2.904;2024-03-06T14:25:02;19.80;57.60
21214;DHT22;10764;50.850;2.904;2024-03-06T14:27:29;19.70;57.10
21214;DHT22;10764;50.850;2.904;2024-03-06T14:29:56;19.90;56.80
21214;DHT22;10764;50.850;2.904;2024-03-06T14:32:23;20.20;56.90
21214;DHT22;10764;50.850;2.904;2024-03-06T14:34:51;19.90;58.10
21214;DHT22;10764;50.850;2.904;2024-03-06T14:37:18;20.40;57.70
21214;DHT22;10764;50.850;2.904;2024-03-06T14:39:45;19.90;56.60
21214;DHT22;10764;50.850;2.904;2024-03-06T14:42:12;20.20;56.80
21214;DHT22;10764;50.850;2.904;2024-03-06T15:53:46;20.10;54.90
21214;DHT22;10764;50.850;2.904;2024-03-06T17:37:27;20.00;54.00
21214;DHT22;10764;50.850;2.904;2024-03-06T17:39:55;19.90;54.20
21214;DHT22;10764;50.850;2.904;2024-03-06T17:42:22;20.20;54.30
21214;DHT22;10764;50.850;2.904;2024-03-06T17:44:49;19.90;54.20
21214;DHT22;10764;50.850;2.904;2024-03-06T17:47:16;20.10;54.60
21214;DHT22;10764;50.850;2.904;2024-03-06T17:49:43;20.00;54.00
21214;DHT22;10764;50.850;2.904;2024-03-06T17:54:38;19.90;51.60
21214;DHT22;10764;50.850;2.904;2024-03-06T17:57:05;19.70;54.30
21214;DHT22;10764;50.850;2.904;2024-03-06T17:59:32;20.10;54.10
21214;DHT22;10764;50.850;2.904;2024-03-06T18:01:59;20.00;54.60
21214;DHT22;10764;50.850;2.904;2024-03-06T18:04:27;20.00;54.10
21214;DHT22;10764;50.850;2.904;2024-03-06T18:06:54;20.20;54.10
21214;DHT22;10764;50.850;2.904;2024-03-06T18:11:49;20.20;51.60
21214;DHT22;10764;50.850;2.904;2024-03-06T18:14:16;17.70;53.00
21214;DHT22;10764;50.850;2.904;2024-03-06T18:16:43;19.70;54.00
21214;DHT22;10764;50.850;2.904;2024-03-06T18:19:13;20.40;54.40
21214;DHT22;10764;50.850;2.904;2024-03-06T18:21:45;19.80;54.50
21214;DHT22;10764;50.850;2.904;2024-03-06T18:24:14;21.10;54.60
21214;DHT22;10764;50.850;2.904;2024-03-06T18:26:41;19.90;54.10
21214;DHT22;10764;50.850;2.904;2024-03-06T18:31:36;19.90;54.20
21214;DHT22;10764;50.850;2.904;2024-03-06T18:34:03;19.80;54.30
21214;DHT22;10764;50.850;2.904;2024-03-06T18:36:30;20.40;54.70
21214;DHT22;10764;50.850;2.904;2024-03-06T18:38:57;19.70;53.80
21214;DHT22;10764;50.850;2.904;2024-03-06T18:41:24;19.70;54.20
21214;DHT22;10764;50.850;2.904;2024-03-06T18:43:51;19.70;54.40
21214;DHT22;10764;50.850;2.904;2024-03-06T18:46:18;19.80;53.90
21214;DHT22;10764;50.850;2.904;2024-03-06T18:48:45;19.90;54.10
21214;DHT22;10764;50.850;2.904;2024-03-06T18:51:12;20.20;54.80
21214;DHT22;10764;50.850;2.904;2024-03-06T18:53:39;20.30;54.60
21214;DHT22;10764;50.850;2.904;2024-03-06T18:56:06;19.90;54.60
21214;DHT22;10764;50.850;2.904;2024-03-06T18:58:33;20.10;54.10
21214;DHT22;10764;50.850;2.904;2024-03-06T19:03:27;19.80;51.50
21214;DHT22;10764;50.850;2.904;2024-03-06T19:05:55;19.60;53.80
21214;DHT22;10764;50.850;2.904;2024-03-06T19:08:22;20.30;54.20
21214;DHT22;10764;50.850;2.904;2024-03-06T19:10:49;20.00;54.00
21214;DHT22;10764;50.850;2.904;2024-03-06T19:13:16;19.70;54.00
21214;DHT22;10764;50.850;2.904;2024-03-06T19:15:43;20.20;54.60
21214;DHT22;10764;50.850;2.904;2024-03-06T19:18:10;20.10;54.50
21214;DHT22;10764;50.850;2.904;2024-03-06T19:20:37;19.90;53.90
21214;DHT22;10764;50.850;2.904;2024-03-06T19:25:34;19.90;53.70
21214;DHT22;10764;50.850;2.904;2024-03-06T19:28:01;19.70;53.70
21214;DHT22;10764;50.850;2.904;2024-03-06T19:30:30;19.80;53.80
21214;DHT22;10764;50.850;2.904;2024-03-06T19:32:57;20.00;54.00
21214;DHT22;10764;50.850;2.904;2024-03-06T19:35:24;20.20;54.60
21214;DHT22;10764;50.850;2.904;2024-03-06T19:37:52;19.70;54.30
21214;DHT22;10764;50.850;2.904;2024-03-06T19:40:20;19.80;53.90
21214;DHT22;10764;50.850;2.904;2024-03-06T19:42:47;20.10;54.30
21214;DHT22;10764;50.850;2.904;2024-03-06T19:45:14;19.70;53.90
21214;DHT22;10764;50.850;2.904;2024-03-06T19:47:41;20.10;53.90
21214;DHT22;10764;50.850;2.904;2024-03-06T21:58:39;19.90;52.90
21214;DHT22;10764;50.850;2.904;2024-03-06T22:01:06;19.90;53.50
21214;DHT22;10764;50.850;2.904;2024-03-06T22:03:33;19.40;52.60
21214;DHT22;10764;50.850;2.904;2024-03-06T22:06:00;19.40;53.10
21214;DHT22;10764;50.850;2.904;2024-03-06T22:08:30;19.50;52.60
21214;DHT22;10764;50.850;2.904;2024-03-06T22:10:58;19.60;52.60
21214;DHT22;10764;50.850;2.904;2024-03-06T22:13:25;22.20;54.10
21214;DHT22;10764;50.850;2.904;2024-03-06T22:15:52;20.10;52.90
21214;DHT22;10764;50.850;2.904;2024-03-06T22:20:47;19.60;50.50
21214;DHT22;10764;50.850;2.904;2024-03-06T22:25:42;19.90;52.70
21214;DHT22;10764;50.850;2.904;2024-03-06T22:35:39;20.00;50.30
21214;DHT22;10764;50.850;2.904;2024-03-06T22:38:07;20.20;52.70
21214;DHT22;10764;50.850;2.904;2024-03-06T22:40:34;19.80;52.70
21214;DHT22;10764;50.850;2.904;2024-03-06T22:43:01;19.70;52.60
21214;DHT22;10764;50.850;2.904;2024-03-06T22:45:28;19.40;52.60
21214;DHT22;10764;50.850;2.904;2024-03-06T22:47:55;19.70;52.70
21214;DHT22;10764;50.850;2.904;2024-03-06T22:52:50;19.80;50.10
21214;DHT22;10764;50.850;2.904;2024-03-06T22:55:16;19.60;52.70
21214;DHT22;10764;50.850;2.904;2024-03-06T23:00:11;19.80;52.50
21214;DHT22;10764;50.850;2.904;2024-03-06T23:02:48;19.90;52.50
21214;DHT22;10764;50.850;2.904;2024-03-06T23:05:15;19.50;52.90
21214;DHT22;10764;50.850;2.904;2024-03-06T23:07:42;19.30;52.40
21214;DHT22;10764;50.850;2.904;2024-03-06T23:10:09;19.10;52.30
21214;DHT22;10764;50.850;2.904;2024-03-06T23:12:36;19.90;52.80
21214;DHT22;10764;50.850;2.904;2024-03-06T23:15:03;19.60;52.60
21214;DHT22;10764;50.850;2.904;2024-03-06T23:17:31;19.40;52.50
21214;DHT22;10764;50.850;2.904;2024-03-06T23:20:00;19.60;52.70
21214;DHT22;10764;50.850;2.904;2024-03-06T23:22:26;19.60;52.60
21214;DHT22;10764;50.850;2.904;2024-03-06T23:24:53;19.70;53.10
21214;DHT22;10764;50.850;2.904;2024-03-06T23:27:20;19.70;52.90
21214;DHT22;10764;50.850;2.904;2024-03-06T23:29:47;19.50;52.50
21214;DHT22;10764;50.850;2.904;2024-03-06T23:32:14;19.40;52.70
21214;DHT22;10764;50.850;2.904;2024-03-06T23:34:41;19.80;52.90
21214;DHT22;10764;50.850;2.904;2024-03-06T23:37:08;19.70;52.30
21214;DHT22;10764;50.850;2.904;2024-03-06T23:39:35;19.50;52.20
21214;DHT22;10764;50.850;2.904;2024-03-06T23:42:02;19.80;53.00
21214;DHT22;10764;50.850;2.904;2024-03-06T23:44:29;19.70;52.40
21214;DHT22;10764;50.850;2.904;2024-03-06T23:46:56;19.50;52.50
21214;DHT22;10764;50.850;2.904;2024-03-06T23:49:23;19.50;52.40
21214;DHT22;10764;50.850;2.904;2024-03-06T23:51:50;19.80;52.90
21214;DHT22;10764;50.850;2.904;2024-03-06T23:59:13;20.00;52.10
